Weather observations for the past three days for
Mount Pleasant, Mount Pleasant Municipal Airport
Imperial (Metric)
Date Time (cdt) Wind (mph) Vis. (mi.) Weather Sky Cond. Temperature (ºF) Relative Humidity Wind Chill (°F) Heat Index (°F) Pressure Precipitation (in)
Air Dwpt 6 hour altimeter (in) sea level (mb) 1 hr 3 hr 6 hr
Max. Min.
02 20:15 S 6 10.00 Fair CLR 80.6 73.4 79% 85 29.9 0.0
02 19:55 SE 6 10.00 Fair CLR 80.6 75.2 84% 86 29.9 0.0
02 19:35 S 5 10.00 Fair CLR 82.4 75.2 79% 89 29.9 0.0
02 19:15 S 5 10.00 Fair CLR 86 75.2 70% 95 29.9 0.0
02 18:55 S 3 7.00 Fair CLR 87.8 75.2 66% 98 29.9 0.0
02 18:35 S 3 10.00 Fair CLR 89.6 75.2 63% 100 29.9 0.0
02 18:15 Calm 10.00 Fair CLR 91.4 75.2 59% 103 29.91 0.0
02 17:55 S 5 10.00 Fair CLR 91.4 73.4 56% 100 29.91 0.0
02 17:35 S 5 10.00 Fair CLR 93.2 73.4 53% 103 29.91 0.0
02 17:15 S 5 10.00 Fair CLR 95 71.6 47% 103 29.91 0.0
02 16:55 S 6 10.00 Fair CLR 95 71.6 47% 103 29.91 0.0
02 16:35 S 7 10.00 Fair CLR 95 71.6 47% 103 29.91 0.0
02 16:15 S 8 10.00 Fair CLR 95 71.6 47% 103 29.92 0.0
02 15:55 SW 9 10.00 Fair CLR 95 71.6 47% 103 29.92 0.0
02 15:35 S 8 10.00 Fair CLR 95 71.6 47% 103 29.93 0.0
02 15:15 S 9 10.00 Fair CLR 95 71.6 47% 103 29.93 0.0
02 14:55 SW 7 10.00 Fair CLR 95 71.6 47% 103 29.93 0.0
02 14:35 S 7 10.00 Fair CLR 95 71.6 47% 103 29.94 0.0
02 14:15 SW 12 10.00 Fair CLR 91.4 71.6 52% 99 29.94 0.0
02 13:55 SW 9 10.00 Fair CLR 91.4 71.6 52% 99 29.94 0.0
02 13:35 SW 7 10.00 Fair CLR 91.4 71.6 52% 99 29.95 0.0
02 13:15 SW 9 10.00 Fair CLR 91.4 71.6 52% 99 29.96 0.0
02 12:55 SW 7 10.00 Fair CLR 89.6 71.6 55% 96 29.96 0.0
02 12:35 SW 7 10.00 Fair CLR 89.6 71.6 55% 96 29.97 0.0
02 12:15 SW 6 10.00 Fair CLR 89.6 71.6 55% 96 29.98 0.0
02 11:55 SW 6 10.00 Fair CLR 87.8 69.8 55% 93 29.98 0.0
02 11:35 S 6 10.00 Fair CLR 87.8 69.8 55% 93 29.98 0.0
02 11:15 SW 7 10.00 Fair CLR 87.8 69.8 55% 93 29.98 0.0
02 10:55 SW 6 10.00 Fair CLR 87.8 69.8 55% 93 29.99 0.0
02 10:35 Calm 10.00 Fair CLR 86 69.8 59% 91 29.98 0.0
02 10:15 SW 3 10.00 Fair CLR 84.2 69.8 62% 88 29.98 0.0
02 09:55 SW 5 10.00 Fair CLR 82.4 71.6 70% 87 29.98 0.0
02 09:35 SW 6 10.00 Fair CLR 80.6 69.8 70% 84 29.98 0.0
02 09:15 W 3 10.00 Fair CLR 80.6 69.8 70% 84 29.99 0.0
02 08:55 Calm 10.00 Fair CLR 78.8 69.8 74% 81 29.99 0.0
02 08:35 Calm 10.00 Fair CLR 77 69.8 79% 79 29.99 0.0
02 08:15 W 6 G 16 10.00 Fair CLR 77 69.8 79% 79 29.98 0.0
02 07:55 SW 6 10.00 Fair CLR 73.4 68 83% 29.97 0.0
02 07:35 S 5 7.00 Fair CLR 73.4 68 83% 29.97 0.0
02 07:15 S 5 10.00 Fair CLR 71.6 68 88% 29.97 0.0
02 06:55 S 6 10.00 Fair CLR 71.6 68 88% 29.97 0.0
02 06:35 S 6 10.00 Fair CLR 69.8 68 94% 29.96 0.0
02 06:15 S 6 10.00 Fair CLR 69.8 68 94% 29.96 0.0
02 05:55 S 5 10.00 Fair CLR 69.8 68 94% 29.96 0.0
02 05:35 S 6 10.00 Fair CLR 71.6 68 88% 29.96 0.0
02 05:15 S 6 10.00 Fair CLR 71.6 68 88% 29.96 0.0
02 04:55 S 6 10.00 Fair CLR 71.6 68 88% 29.96 0.0
02 04:35 S 6 10.00 Fair CLR 69.8 66.2 88% 29.96 0.0
02 04:15 S 5 10.00 Fair CLR 71.6 66.2 83% 29.96 0.0
02 03:55 S 5 10.00 Fair CLR 71.6 68 88% 29.96 0.0
02 03:35 S 3 10.00 Fair CLR 71.6 68 88% 29.95 0.0
02 03:15 S 5 10.00 Fair CLR 71.6 68 88% 29.95 0.0
02 02:55 S 5 10.00 Fair CLR 73.4 66.2 78% 29.94 0.0
02 02:35 S 6 10.00 Fair CLR 73.4 66.2 78% 29.94 0.0
02 02:15 S 5 10.00 Fair CLR 73.4 66.2 78% 29.94 0.0
02 01:55 S 6 10.00 Fair CLR 73.4 66.2 78% 29.95 0.0
02 01:35 S 6 10.00 Fair CLR 73.4 68 83% 29.95 0.0
02 01:15 S 5 10.00 Fair CLR 73.4 68 83% 29.96 0.0
02 00:55 S 6 10.00 Fair CLR 73.4 68 83% 29.95 0.0
02 00:35 S 6 10.00 Fair CLR 73.4 68 83% 29.96 0.0
02 00:15 S 6 10.00 Fair CLR 75.2 66.2 74% 77 29.96 0.0
01 23:35 S 6 10.00 Fair CLR 75.2 68 78% 76 29.96 0.0
01 23:15 S 6 10.00 Fair CLR 77 68 74% 79 29.96 0.0
01 22:55 S 6 10.00 Fair CLR 77 68 74% 79 29.96 0.0
01 22:35 S 6 10.00 Fair CLR 77 68 74% 79 29.96 0.0
01 22:15 S 6 10.00 Fair CLR 77 68 74% 79 29.95 0.0
01 21:55 S 6 10.00 Fair CLR 75.2 69.8 83% 75 29.95 0.0
01 21:35 Calm 10.00 Fair CLR 77 69.8 79% 79 29.95 0.0
01 21:15 S 6 10.00 Fair CLR 77 69.8 79% 79 29.95 0.0
01 20:55 S 6 10.00 Fair CLR 77 69.8 79% 79 29.94 0.0
01 20:35 S 6 10.00 Fair CLR 78.8 69.8 74% 81 29.94 0.0
01 20:15 S 6 10.00 Fair CLR 78.8 69.8 74% 81 29.93 0.0
01 19:55 S 3 10.00 Fair CLR 77 71.6 83% 78 29.93 0.0
01 19:35 S 5 10.00 Fair CLR 78.8 73.4 84% 82 29.93 0.0
01 19:15 S 3 10.00 Fair CLR 84.2 71.6 66% 90 29.93 0.0
01 18:55 S 3 10.00 Fair CLR 87.8 71.6 59% 94 29.93 0.0
01 18:35 S 3 10.00 Fair CLR 89.6 71.6 55% 96 29.93 0.0
01 18:15 S 3 10.00 Fair CLR 91.4 71.6 52% 99 29.94 0.0
01 17:55 S 5 10.00 Fair CLR 93.2 71.6 50% 101 29.93 0.0
01 17:35 S 3 10.00 Fair CLR 95 69.8 44% 101 29.93 0.0
01 17:15 SW 3 10.00 Fair CLR 95 69.8 44% 101 29.94 0.0
01 16:55 S 3 10.00 Fair CLR 95 69.8 44% 101 29.94 0.0
01 16:35 SW 3 10.00 Fair CLR 95 68 41% 100 29.94 0.0
01 16:15 SW 5 10.00 Fair CLR 95 68 41% 100 29.94 0.0
01 15:55 SW 8 10.00 Fair CLR 95 69.8 44% 101 29.95 0.0
01 15:35 SW 7 10.00 Fair CLR 95 69.8 44% 101 29.95 0.0
01 15:15 SW 7 10.00 Fair CLR 93.2 69.8 47% 99 29.95 0.0
01 14:55 SW 7 10.00 Fair CLR 93.2 69.8 47% 99 29.96 0.0
01 14:35 SW 9 10.00 Fair CLR 91.4 68 46% 96 29.96 0.0
01 14:15 SW 12 10.00 Fair CLR 91.4 68 46% 96 29.97 0.0
01 13:55 SW 6 10.00 Fair CLR 91.4 69.8 49% 97 29.97 0.0
01 13:35 SW 7 10.00 Fair CLR 91.4 69.8 49% 97 29.97 0.0
01 13:15 SW 8 10.00 Fair CLR 91.4 69.8 49% 97 29.98 0.0
01 12:55 SW 8 10.00 Fair CLR 89.6 69.8 52% 95 29.98 0.0
01 12:35 SW 9 10.00 Fair CLR 89.6 69.8 52% 95 29.99 0.0
01 12:15 SW 8 10.00 Fair CLR 89.6 69.8 52% 95 29.99 0.0
01 11:55 SW 7 10.00 Fair CLR 89.6 69.8 52% 95 30 0.0
01 11:35 SW 8 10.00 Fair CLR 89.6 69.8 52% 95 30 0.0
01 11:15 SW 8 10.00 Fair CLR 87.8 69.8 55% 93 30 0.0
01 10:55 SW 8 10.00 Fair CLR 87.8 69.8 55% 93 30 0.0
01 10:35 SW 9 10.00 Fair CLR 86 68 55% 89 30 0.0
01 10:15 SW 8 10.00 Fair CLR 86 68 55% 89 30 0.0
01 09:55 SW 8 10.00 Fair CLR 82.4 69.8 66% 86 30 0.0
01 09:35 SW 8 10.00 Fair CLR 82.4 69.8 66% 86 30 0.0
01 09:15 SW 8 10.00 Fair CLR 80.6 69.8 70% 84 30 0.0
01 08:55 SW 8 10.00 Fair CLR 78.8 69.8 74% 81 30 0.0
01 08:35 SW 6 10.00 Fair CLR 77 69.8 79% 79 30 0.0
01 08:15 SW 6 10.00 Fair CLR 75.2 69.8 83% 75 30.01 0.0
01 07:55 SW 5 10.00 Fair CLR 73.4 69.8 89% 30 0.0
01 07:35 Calm 10.00 Fair CLR 71.6 69.8 94% 30 0.0
01 07:15 S 3 10.00 Fair CLR 71.6 68 88% 29.99 0.0
01 06:55 S 3 10.00 Fair CLR 71.6 68 88% 29.99 0.0
01 06:35 SW 3 10.00 Fair CLR 69.8 68 94% 29.98 0.0
01 06:15 S 3 10.00 Fair CLR 69.8 68 94% 29.98 0.0
01 05:55 Calm 10.00 Fair CLR 69.8 68 94% 29.97 0.0
01 05:35 S 3 10.00 Fair CLR 69.8 68 94% 29.97 0.0
01 05:15 Calm 10.00 Fair CLR 71.6 69.8 94% 29.97 0.0
01 04:55 S 3 10.00 Fair CLR 71.6 69.8 94% 29.96 0.0
01 04:35 S 3 10.00 Fair CLR 71.6 69.8 94% 29.96 0.0
01 04:15 Calm 10.00 Fair CLR 71.6 69.8 94% 29.96 0.0
01 03:55 Calm 10.00 Fair CLR 71.6 69.8 94% 29.96 0.0
01 03:35 S 3 10.00 Fair CLR 71.6 69.8 94% 29.96 0.0
01 03:15 S 3 10.00 Fair CLR 73.4 69.8 89% 29.95 0.0
01 02:55 Calm 10.00 Fair CLR 73.4 69.8 89% 29.96 0.0
01 02:35 SW 3 10.00 Fair CLR 71.6 69.8 94% 29.96 0.0
01 02:15 S 3 10.00 Fair CLR 71.6 69.8 94% 29.96 0.0
01 01:55 Calm 10.00 Fair CLR 71.6 69.8 94% 29.97 0.0
01 01:35 S 3 10.00 Fair CLR 73.4 69.8 89% 29.96 0.0
01 01:15 S 3 10.00 Fair CLR 71.6 69.8 94% 29.96 0.0
01 00:55 Calm 10.00 Fair CLR 71.6 69.8 94% 29.96 0.0
01 00:35 Calm 10.00 Fair CLR 73.4 69.8 89% 29.96 0.0
01 00:15 SW 3 10.00 Fair CLR 73.4 71.6 94% 29.95 0.0
31 23:55 Calm 10.00 Fair CLR 73.4 69.8 89% 29.95 0.0
31 23:35 Calm 10.00 Fair CLR 75.2 71.6 89% 75 29.95 0.0
31 23:15 S 3 10.00 Fair CLR 77 71.6 83% 78 29.95 0.0
31 22:55 Calm 10.00 Fair CLR 77 71.6 83% 78 29.95 0.0
31 22:35 S 6 10.00 Fair CLR 77 71.6 83% 78 29.95 0.0
31 22:15 S 3 10.00 Fair CLR 77 71.6 83% 78 29.95 0.0
31 21:55 S 3 10.00 Fair CLR 77 71.6 83% 78 29.95 0.0
31 21:35 S 5 10.00 Fair CLR 77 71.6 83% 78 29.94 0.0
31 21:15 S 3 10.00 Fair CLR 78.8 73.4 84% 82 29.94 0.0
31 20:55 S 3 10.00 Fair CLR 78.8 73.4 84% 82 29.94 0.0
31 20:35 SW 5 10.00 Fair CLR 80.6 73.4 79% 85 29.94 0.0
31 20:15 S 5 10.00 Fair CLR 80.6 73.4 79% 85 29.93 0.0
31 19:55 S 5 10.00 Fair CLR 80.6 73.4 79% 85 29.92 0.0
31 19:35 S 3 10.00 Fair CLR 82.4 73.4 74% 88 29.92 0.0
31 19:15 Calm 10.00 Fair CLR 82.4 77 84% 91 29.92 0.0
31 18:35 S 3 10.00 Fair CLR 87.8 75.2 66% 98 29.91 0.0
31 18:15 Calm 10.00 Fair CLR 89.6 75.2 63% 100 29.92 0.0
31 17:55 SW 3 10.00 Fair CLR 89.6 73.4 59% 98 29.91 0.0
31 17:35 SW 5 10.00 Fair CLR 89.6 73.4 59% 98 29.91 0.0
31 17:15 SW 5 10.00 Fair CLR 87.8 73.4 62% 96 29.91 0.0
31 16:55 SW 7 10.00 Fair CLR 89.6 71.6 55% 96 29.91 0.0
31 16:35 SW 6 10.00 Fair CLR 91.4 71.6 52% 99 29.91 0.0
31 16:15 SW 5 10.00 Fair CLR 89.6 71.6 55% 96 29.91 0.0
31 15:55 W 5 10.00 Fair CLR 89.6 71.6 55% 96 29.92 0.0
31 15:35 SW 5 10.00 Fair CLR 89.6 71.6 55% 96 29.92 0.0
31 15:15 W 7 10.00 Fair CLR 87.8 71.6 59% 94 29.92 0.0
31 14:55 SW 6 10.00 Fair CLR 87.8 69.8 55% 93 29.92 0.0
31 14:35 W 5 10.00 Fair CLR 87.8 69.8 55% 93 29.92 0.0
31 14:15 SW 9 10.00 Fair CLR 89.6 69.8 52% 95 29.93 0.0
31 13:55 SW 7 10.00 Fair CLR 89.6 69.8 52% 95 29.92 0.0
31 13:35 SW 9 10.00 Fair CLR 89.6 69.8 52% 95 29.93 0.0
31 13:15 W 7 10.00 Fair CLR 87.8 69.8 55% 93 29.93 0.0
31 12:55 SW 9 10.00 Fair CLR 87.8 68 52% 91 29.93 0.0
31 12:35 SW 9 G 16 10.00 Fair CLR 87.8 68 52% 91 29.93 0.0
31 12:15 SW 10 G 17 10.00 Fair CLR 87.8 68 52% 91 29.93 0.0
31 11:55 W 10 10.00 Fair CLR 87.8 68 52% 91 29.94 0.0
31 11:35 SW 15 G 21 10.00 Fair CLR 86 66.2 52% 88 29.94 0.0
31 11:15 SW 13 G 20 10.00 Fair CLR 86 68 55% 89 29.94 0.0
31 10:55 SW 13 G 17 10.00 Fair CLR 86 68 55% 89 29.93 0.0
31 10:35 SW 12 10.00 Fair CLR 84.2 68 58% 87 29.93 0.0
31 10:15 SW 12 G 18 10.00 Fair CLR 82.4 66.2 58% 85 29.93 0.0
31 09:55 SW 13 G 17 10.00 Fair CLR 82.4 66.2 58% 85 29.93 0.0
31 09:35 SW 14 G 20 10.00 Fair CLR 80.6 66.2 62% 83 29.93 0.0
31 09:15 SW 9 10.00 Fair CLR 78.8 64.4 61% 81 29.93 0.0
31 08:55 SW 13 G 17 10.00 Fair CLR 78.8 64.4 61% 81 29.93 0.0
31 08:35 S 10 G 18 10.00 Fair CLR 77 64.4 65% 79 29.93 0.0
31 08:15 S 9 G 18 10.00 Fair CLR 77 64.4 65% 79 29.93 0.0
31 07:55 S 10 10.00 Fair CLR 77 64.4 65% 79 29.92 0.0
31 07:35 S 9 10.00 Fair CLR 75.2 64.4 69% 77 29.93 0.0
31 07:15 S 8 10.00 Fair CLR 73.4 64.4 74% 29.92 0.0
31 06:55 S 9 10.00 Fair CLR 73.4 64.4 74% 29.92 0.0
31 06:35 S 7 10.00 Fair CLR 73.4 64.4 74% 29.92 0.0
31 06:15 S 9 10.00 Fair CLR 73.4 64.4 74% 29.91 0.0
31 05:55 S 9 10.00 Fair CLR 73.4 64.4 74% 29.91 0.0
31 05:35 S 10 10.00 Fair CLR 73.4 64.4 74% 29.92 0.0
31 05:15 S 8 10.00 Fair CLR 73.4 64.4 74% 29.92 0.0
31 04:55 S 9 10.00 Fair CLR 73.4 64.4 74% 29.91 0.0
31 04:35 S 8 10.00 Fair CLR 73.4 64.4 74% 29.91 0.0
31 04:15 S 8 10.00 Fair CLR 73.4 64.4 74% 29.91 0.0
31 03:55 S 8 10.00 Fair CLR 73.4 64.4 74% 29.91 0.0
31 03:35 S 7 10.00 Fair CLR 73.4 64.4 74% 29.91 0.0
31 03:15 S 9 10.00 Fair CLR 73.4 64.4 74% 29.91 0.0
31 02:55 S 8 10.00 Fair CLR 73.4 64.4 74% 29.9 0.0
31 02:35 S 9 10.00 Fair CLR 75.2 64.4 69% 77 29.9 0.0
31 02:15 S 8 10.00 Fair CLR 75.2 64.4 69% 77 29.91 0.0
31 01:55 S 8 10.00 Fair CLR 75.2 64.4 69% 77 29.91 0.0
31 01:35 S 8 10.00 Fair CLR 75.2 64.4 69% 77 29.91 0.0
31 01:15 S 7 10.00 Fair CLR 75.2 66.2 74% 77 29.92 0.0
31 00:55 S 8 10.00 Fair CLR 75.2 66.2 74% 77 29.92 0.0
31 00:35 S 8 10.00 Fair CLR 75.2 66.2 74% 77 29.91 0.0
31 00:15 S 8 10.00 Fair CLR 77 66.2 69% 79 29.91 0.0
30 23:55 S 8 10.00 Fair CLR 75.2 68 78% 76 29.91 0.0
30 23:35 S 8 10.00 Fair CLR 77 68 74% 79 29.91 0.0
30 23:15 S 8 10.00 Fair CLR 77 68 74% 79 29.92 0.0
30 22:55 S 7 10.00 Fair CLR 77 68 74% 79 29.92 0.0
30 22:35 S 8 10.00 Fair CLR 77 68 74% 79 29.92 0.0
30 22:15 S 8 10.00 Fair CLR 77 68 74% 79 29.93 0.0
30 21:55 S 7 10.00 Fair CLR 77 69.8 79% 79 29.93 0.0
30 21:35 S 7 10.00 Fair CLR 77 69.8 79% 79 29.93 0.0
30 21:15 S 6 10.00 Fair CLR 77 69.8 79% 79 29.92 0.0
30 20:55 S 5 10.00 Fair CLR 77 69.8 79% 79 29.92 0.0
Date Time (cdt) Wind (mph) Vis. (mi.) Weather Sky Cond. Air Dwpt Max. Min. Relative Humidity Wind Chill (°F) Heat Index (°F) altimeter (in) sea level (mb) 1 hr 3 hr 6 hr
6 hour
Temperature (ºF) Pressure Precipitation (in)